Mystic, Missouri
Current Conditions -  °F | °C
As of 1:55 PM on Friday 28 Nov 2014 (Local Time) from KIRK Reporting Station
Clear Clear  
Wind Chill: 45°   Ceiling: Unl
Heat Index: 49°   Visibility: 10mi
Dew Point: 33°   Wind: 9mph
Humidity: 54%   Direction: 220°SW
Pressure: 29.87"   Gusts: NA
Location:  40.2455°N, 92.9523°W
Report Text: KIRK 281955Z AUTO 22008KT 10SM CLR 09/01 A2987 RMK AO2 SLP124 T00940006
Loading
Personal Weather Stations






























Interactive Weather Map New forecast layout! Learn more

10-Day Weather Forecast

Advertisements
Track Severe Weather on mobile